Colman, SD

6:40 PM CDT on October 24, 2014 (GMT -0500)
Madison Municipal | Change Station
CLOSE
Current Station
Airport
Location: Madison,
Elevation: 1716 ft
Nearby Weather Stations

Elev 1716 ft 44.01 °N, 97.08 °W | Updated 5 minutes ago

Clear
Clear
66 °F
Feels Like 66 °F
N
5
Wind Variable Wind from West

Today
High -- | Low -- °F
--% Chance of Precip.
Yesterday
High -- | Low -- °F
Precip. -- in
7:53 AM 6:28 PM
New Moon, 1% visible
Pressure 29.94 in
Visibility 10.0 miles
Clouds Clear
Dew Point 39 °F
Humidity 37%
Rainfall 0.00 in
Snow Depth Not available.
UV 0 out of 12
Pollen 1.90 out of 12
Air Quality Not available.
Flu Activity Sporadic
METAR KMDS 242335Z AUTO 27004KT 10SM CLR 19/04 A2994 RMK AO2

More Conditions Fewer Conditions

Pressure 29.94 in
Visibility 10.0 miles
Clouds Clear
Dew Point 39 °F
Humidity 37%
Rainfall 0.00 in
Snow Depth Not available.
UV 0 out of 12
Pollen 1.90 out of 12
Air Quality Not available.
Flu Activity Sporadic
METAR KMDS 242335Z AUTO 27004KT 10SM CLR 19/04 A2994 RMK AO2

More Conditions Fewer Conditions

10-Day Weather Forecast

Almanac

Astronomy

Oct. 24, 2014 Rise Set
Actual Time 7:53 AM CDT 6:28 PM CDT
Civil Twilight 7:23 AM CDT 6:58 PM CDT
Nautical Twilight 6:50 AM CDT 7:32 PM CDT
Astronomical Twilight 6:16 AM CDT 8:05 PM CDT
Moon 8:34 AM CDT 7:08 PM CDT
Length of Visible Light 11h 34m
Length of Day
10h 35m
Tomorrow will be 2m 50s shorter.
New Moon, 1% of the Moon is Illuminated
Today
New Moon
Oct 30
First Quarter
Nov 6
Full
Nov 14
Last Quarter
Nov 22
New

Today's Extremes

State Highs State Lows

Community

WunderPhotos

Upload Photos

1,764,713 photos uploaded!

Nearby

Snow Depth

Station Depth Elevation
North Rapid Creek 0 in 6130 ft
Blind Park 0 in 6890 ft

Earthquake Activity

City Distance Mag. Time & Date
No recent earthquake activity has been reported nearby.
Minimum magnitude displayed is 2.5.

Coastal Water Temperatures

Place Temperature
No Stations Reporting

Nearby Weather Stations